Ruth, Nevada
Current Conditions -  °F | °C
As of 11:53 PM on Thursday 30 Oct 2014 (Local Time) from KELY Reporting Station
Clear Clear  
Wind Chill: 41°   Ceiling: Unl
Heat Index: 47°   Visibility: 10mi
Dew Point: 23°   Wind: 14mph
Humidity: 39%   Direction: 170°S
Pressure: 30.12"   Gusts: NA
Location:  39.28°N, 114.99°W
Report Text: KELY 310653Z AUTO 17012KT 10SM CLR 08/M05 A3012 RMK AO2 SLP123 T00831050
Loading
Personal Weather Stations






























Interactive Weather Map
Tropical Storm Tracking
New forecast layout! Learn more

10-Day Weather Forecast

Advertisements
Track Severe Weather on mobile